createdAt,value
2018-12-12T00:02:24.775Z,3.72
2018-12-12T00:05:31.443Z,3.72
2018-12-12T00:08:38.342Z,3.76
2018-12-12T00:11:57.502Z,3.66
2018-12-12T00:15:05.215Z,3.66
2018-12-12T00:18:24.878Z,3.66
2018-12-12T00:21:31.533Z,3.68
2018-12-12T00:24:38.293Z,3.65
2018-12-12T00:27:57.322Z,3.62
2018-12-12T00:31:03.985Z,3.61
2018-12-12T00:34:10.726Z,3.67
2018-12-12T00:37:17.385Z,3.66
2018-12-12T00:40:24.071Z,3.65
2018-12-12T00:43:42.863Z,3.66
2018-12-12T00:46:50.360Z,3.66
2018-12-12T00:49:57.109Z,3.67
2018-12-12T00:53:03.895Z,3.68
2018-12-12T00:56:10.659Z,3.63
2018-12-12T00:59:30.001Z,3.63
2018-12-12T01:02:36.773Z,3.66
2018-12-12T01:05:43.449Z,3.56
2018-12-12T01:09:04.160Z,3.51
2018-12-12T01:12:12.620Z,3.43
2018-12-12T01:15:20.449Z,3.42
2018-12-12T01:18:27.506Z,3.39
2018-12-12T01:21:34.271Z,3.43
2018-12-12T01:24:41.245Z,3.41
2018-12-12T01:27:48.079Z,3.38
2018-12-12T01:31:07.572Z,3.38
2018-12-12T01:34:14.318Z,3.34
2018-12-12T01:37:21.102Z,3.30
2018-12-12T01:40:28.362Z,3.31
2018-12-12T01:43:35.231Z,3.27
2018-12-12T01:46:54.646Z,3.24
2018-12-12T01:50:01.504Z,3.28
2018-12-12T01:53:08.378Z,3.19
2018-12-12T01:56:15.778Z,3.17
2018-12-12T01:59:22.770Z,3.12
2018-12-12T02:02:41.674Z,3.11
2018-12-12T02:05:48.442Z,3.11
2018-12-12T02:08:55.431Z,3.03
2018-12-12T02:12:03.331Z,3.04
2018-12-12T02:15:10.569Z,2.99
2018-12-12T02:18:17.422Z,2.97
2018-12-12T02:21:24.432Z,3.01
2018-12-12T02:24:31.197Z,2.97
2018-12-12T02:27:50.418Z,2.95
2018-12-12T02:30:57.172Z,2.89
2018-12-12T02:34:03.926Z,2.87
2018-12-12T02:37:23.103Z,2.84
2018-12-12T02:40:29.762Z,2.83
2018-12-12T02:43:36.673Z,2.81
2018-12-12T02:46:57.835Z,2.82
2018-12-12T02:50:05.090Z,2.86
2018-12-12T02:53:11.745Z,2.81
2018-12-12T02:56:18.686Z,2.78
2018-12-12T02:59:25.674Z,2.79
2018-12-12T03:02:32.862Z,2.80
2018-12-12T03:05:54.151Z,2.80
2018-12-12T03:09:00.822Z,2.79
2018-12-12T03:12:07.921Z,2.81
2018-12-12T03:15:28.247Z,2.82
2018-12-12T03:18:35.425Z,2.79
2018-12-12T03:21:42.101Z,2.77
2018-12-12T03:25:01.148Z,2.82
2018-12-12T03:28:21.479Z,2.81
2018-12-12T03:31:40.883Z,2.77
2018-12-12T03:34:47.631Z,2.76
2018-12-12T03:37:54.396Z,2.78
2018-12-12T03:41:13.575Z,2.86
2018-12-12T03:44:20.346Z,2.91
2018-12-12T03:47:27.581Z,2.86
2018-12-12T03:50:34.254Z,2.86
2018-12-12T03:53:43.841Z,2.89
2018-12-12T03:56:53.538Z,2.89
2018-12-12T04:00:03.890Z,2.91
2018-12-12T04:03:13.545Z,2.97
2018-12-12T04:06:28.441Z,2.93
2018-12-12T04:09:35.449Z,3.04
2018-12-12T04:12:41.390Z,2.92
2018-12-12T04:15:48.242Z,3.01
2018-12-12T04:18:56.020Z,3.01
2018-12-12T04:22:03.129Z,3.10
2018-12-12T04:25:10.047Z,3.17
2018-12-12T04:28:28.852Z,3.20
2018-12-12T04:31:49.113Z,3.09
2018-12-12T04:35:06.914Z,3.09
2018-12-12T04:38:23.174Z,3.07
2018-12-12T04:41:42.183Z,3.08
2018-12-12T04:44:57.666Z,3.04
2018-12-12T04:48:13.178Z,3.09
2018-12-12T04:51:32.815Z,3.04
2018-12-12T04:54:40.814Z,3.06
2018-12-12T04:57:48.265Z,3.10
2018-12-12T05:00:54.991Z,3.13
2018-12-12T05:04:02.554Z,3.10
2018-12-12T05:07:09.203Z,3.09
2018-12-12T05:10:28.549Z,3.09
2018-12-12T05:13:35.322Z,3.20
2018-12-12T05:16:42.010Z,3.14
2018-12-12T05:20:01.210Z,3.27
2018-12-12T05:23:08.069Z,3.20
2018-12-12T05:26:14.820Z,3.15
2018-12-12T05:29:33.909Z,3.13
2018-12-12T05:32:40.676Z,3.07
2018-12-12T05:35:47.440Z,3.15
2018-12-12T05:39:07.786Z,3.02
2018-12-12T05:42:14.571Z,2.99
2018-12-12T05:45:34.076Z,3.01
2018-12-12T05:48:40.755Z,2.94
2018-12-12T05:51:47.407Z,2.90
2018-12-12T05:55:07.207Z,2.96
2018-12-12T05:58:31.540Z,2.93
2018-12-12T06:01:39.245Z,2.98
2018-12-12T06:04:45.902Z,2.95
2018-12-12T06:08:05.153Z,2.90
2018-12-12T06:11:11.825Z,2.86
2018-12-12T06:14:18.845Z,2.87
2018-12-12T06:17:37.843Z,2.94
2018-12-12T06:20:44.665Z,3.01
2018-12-12T06:23:51.514Z,2.99
2018-12-12T06:27:10.531Z,2.95
2018-12-12T06:30:17.557Z,2.97
2018-12-12T06:33:24.325Z,2.91
2018-12-12T06:36:49.217Z,2.93
2018-12-12T06:39:55.969Z,2.95
2018-12-12T06:43:04.264Z,2.93
2018-12-12T06:46:10.919Z,2.96
2018-12-12T06:49:17.890Z,2.97
2018-12-12T06:52:24.668Z,2.95
2018-12-12T06:55:43.530Z,2.96
2018-12-12T06:58:50.277Z,2.97
2018-12-12T07:01:57.376Z,2.96
2018-12-12T07:05:04.807Z,2.98
2018-12-12T07:08:11.573Z,2.99
2018-12-12T07:11:35.712Z,2.97
2018-12-12T07:14:42.465Z,2.98
2018-12-12T07:17:49.189Z,2.98
2018-12-12T07:21:08.334Z,2.98
2018-12-12T07:24:15.111Z,2.98
2018-12-12T07:27:21.791Z,2.99
2018-12-12T07:30:41.029Z,2.96
2018-12-12T07:33:47.748Z,2.95
2018-12-12T07:36:54.833Z,2.91
2018-12-12T07:40:13.715Z,2.94
2018-12-12T07:43:21.409Z,2.90
2018-12-12T07:46:28.300Z,2.93
2018-12-12T07:49:35.500Z,2.90
2018-12-12T07:52:42.345Z,2.88
2018-12-12T07:55:49.445Z,2.91
2018-12-12T07:58:56.222Z,2.91
2018-12-12T08:02:15.234Z,2.89
2018-12-12T08:05:22.102Z,2.87
2018-12-12T08:08:29.010Z,2.87
2018-12-12T08:11:36.010Z,2.87
2018-12-12T08:15:03.058Z,2.92
2018-12-12T08:18:09.914Z,2.90
2018-12-12T08:21:16.796Z,2.91
2018-12-12T08:24:23.562Z,2.90
2018-12-12T08:27:42.518Z,2.88
2018-12-12T08:30:49.481Z,2.91
2018-12-12T08:33:56.193Z,2.91
2018-12-12T08:37:15.239Z,2.91
2018-12-12T08:40:22.204Z,2.90
2018-12-12T08:43:28.861Z,2.93
2018-12-12T08:46:47.871Z,2.95
2018-12-12T08:49:55.199Z,2.97
2018-12-12T08:53:01.965Z,3.00
2018-12-12T08:56:07.904Z,2.99
2018-12-12T08:59:14.580Z,2.99
2018-12-12T09:02:21.333Z,3.07
2018-12-12T09:05:40.582Z,3.09
2018-12-12T09:08:47.247Z,3.09
2018-12-12T09:11:54.207Z,3.14
2018-12-12T09:15:13.671Z,3.12
2018-12-12T09:18:20.433Z,3.19
2018-12-12T09:21:27.113Z,3.26
2018-12-12T09:24:33.874Z,3.30
2018-12-12T09:27:53.194Z,3.32
2018-12-12T09:30:59.858Z,3.37
2018-12-12T09:34:06.609Z,3.43
2018-12-12T09:37:25.827Z,3.48
2018-12-12T09:40:32.591Z,3.51
2018-12-12T09:43:39.360Z,3.53
2018-12-12T09:46:58.548Z,3.58
2018-12-12T09:50:06.002Z,3.59
2018-12-12T09:53:12.693Z,3.63
2018-12-12T09:56:19.455Z,3.66
2018-12-12T09:59:38.441Z,3.72
2018-12-12T10:02:45.108Z,3.71
2018-12-12T10:05:52.102Z,3.73
2018-12-12T10:09:11.114Z,3.74
2018-12-12T10:12:17.901Z,3.76
2018-12-12T10:15:24.801Z,3.82
2018-12-12T10:18:43.785Z,3.85
2018-12-12T10:21:50.982Z,3.89
2018-12-12T10:24:57.755Z,3.91
2018-12-12T10:28:05.230Z,3.95
2018-12-12T10:31:12.233Z,3.98
2018-12-12T10:34:19.081Z,4.00
2018-12-12T10:37:38.125Z,4.04
2018-12-12T10:40:44.887Z,4.07
2018-12-12T10:43:51.655Z,4.09
2018-12-12T10:47:10.834Z,4.11
2018-12-12T10:50:18.593Z,4.15
2018-12-12T10:53:37.915Z,4.18
2018-12-12T10:56:44.675Z,4.19
2018-12-12T10:59:51.337Z,4.21
2018-12-12T11:03:16.489Z,4.25
2018-12-12T11:06:43.875Z,4.26
2018-12-12T11:09:50.847Z,4.29
2018-12-12T11:12:57.607Z,4.30
2018-12-12T11:16:05.277Z,4.32
2018-12-12T11:19:12.174Z,4.34
2018-12-12T11:22:18.947Z,4.38
2018-12-12T11:25:44.149Z,4.40
2018-12-12T11:28:50.910Z,4.42
2018-12-12T11:31:58.578Z,4.43
2018-12-12T11:35:06.006Z,4.45
2018-12-12T11:38:12.775Z,4.47
2018-12-12T11:41:19.638Z,4.49
2018-12-12T11:44:26.499Z,4.51
2018-12-12T11:47:46.038Z,4.53
2018-12-12T11:50:52.857Z,4.54
2018-12-12T11:53:59.530Z,4.55
2018-12-12T11:57:07.006Z,4.57
2018-12-12T12:00:14.101Z,4.58
2018-12-12T12:03:20.763Z,4.59
2018-12-12T12:06:27.502Z,4.62
2018-12-12T12:09:34.216Z,4.62
2018-12-12T12:12:40.971Z,4.65
2018-12-12T12:16:02.086Z,4.67
2018-12-12T12:19:08.742Z,4.69
2018-12-12T12:22:15.498Z,4.69
2018-12-12T12:25:34.801Z,4.70
2018-12-12T12:28:41.883Z,4.70
2018-12-12T12:31:48.954Z,4.72
2018-12-12T12:34:55.728Z,4.72
2018-12-12T12:38:11.182Z,4.73
2018-12-12T12:41:17.833Z,4.74
2018-12-12T12:44:24.617Z,4.73
2018-12-12T12:47:43.753Z,4.72
2018-12-12T12:50:50.511Z,4.70
2018-12-12T12:53:57.471Z,4.71
2018-12-12T12:57:16.471Z,4.71
2018-12-12T13:00:23.217Z,4.69
2018-12-12T13:03:29.874Z,4.70
2018-12-12T13:06:49.177Z,4.69
2018-12-12T13:09:56.084Z,4.67
2018-12-12T13:13:03.030Z,4.69
2018-12-12T13:16:10.035Z,4.71
2018-12-12T13:19:29.089Z,4.73
2018-12-12T13:22:35.798Z,4.74
2018-12-12T13:25:42.565Z,4.72
2018-12-12T13:29:01.786Z,4.73
2018-12-12T13:32:08.457Z,4.71
2018-12-12T13:35:15.654Z,4.68
2018-12-12T13:38:34.466Z,4.70
2018-12-12T13:41:41.475Z,4.70
2018-12-12T13:44:48.371Z,4.72
2018-12-12T13:48:12.671Z,4.73
2018-12-12T13:51:19.354Z,4.72
2018-12-12T13:54:40.154Z,4.75
2018-12-12T13:57:46.922Z,4.75
2018-12-12T14:00:53.371Z,4.68
2018-12-12T14:04:01.389Z,4.68
2018-12-12T14:07:08.148Z,4.70
2018-12-12T14:10:23.845Z,4.68
2018-12-12T14:13:30.694Z,4.63
2018-12-12T14:16:37.342Z,4.61
2018-12-12T14:19:57.646Z,4.60
2018-12-12T14:23:04.749Z,4.62
2018-12-12T14:26:11.734Z,4.61
2018-12-12T14:29:18.702Z,4.57
2018-12-12T14:32:25.932Z,4.58
2018-12-12T14:35:44.775Z,4.53
2018-12-12T14:38:50.802Z,4.51
2018-12-12T14:41:58.314Z,4.46
2018-12-12T14:45:19.469Z,4.43
2018-12-12T14:48:30.291Z,4.40
2018-12-12T14:51:34.773Z,4.35
2018-12-12T14:54:53.782Z,4.31
2018-12-12T14:58:00.649Z,4.27
2018-12-12T15:01:07.358Z,4.22
2018-12-12T15:04:36.066Z,4.17
2018-12-12T15:07:54.323Z,4.13
2018-12-12T15:11:01.284Z,4.12
2018-12-12T15:14:08.760Z,4.03
2018-12-12T15:17:15.654Z,4.01
2018-12-12T15:20:22.325Z,3.94
2018-12-12T15:23:41.490Z,3.87
2018-12-12T15:26:48.549Z,3.82
2018-12-12T15:29:55.224Z,3.77
2018-12-12T15:33:14.341Z,3.70
2018-12-12T15:36:21.058Z,3.65
2018-12-12T15:39:27.760Z,3.59
2018-12-12T15:42:47.071Z,3.56
2018-12-12T15:45:53.743Z,3.48
2018-12-12T15:49:12.557Z,3.42
2018-12-12T15:52:24.560Z,3.40
2018-12-12T15:55:32.236Z,3.37
2018-12-12T15:58:38.973Z,3.30
2018-12-12T16:01:46.907Z,3.27
2018-12-12T16:05:06.513Z,3.23
2018-12-12T16:08:25.967Z,3.20
2018-12-12T16:11:32.729Z,3.13
2018-12-12T16:14:39.405Z,3.08
2018-12-12T16:17:46.058Z,3.08
2018-12-12T16:20:52.813Z,3.02
2018-12-12T16:23:59.579Z,3.04
2018-12-12T16:27:18.691Z,3.08
2018-12-12T16:30:25.445Z,3.02
2018-12-12T16:33:32.198Z,2.98
2018-12-12T16:36:51.368Z,2.91
2018-12-12T16:39:58.454Z,2.96
2018-12-12T16:43:05.216Z,2.90
2018-12-12T16:46:25.001Z,2.91
2018-12-12T16:49:43.942Z,2.90
2018-12-12T16:52:50.617Z,2.95
2018-12-12T16:56:09.865Z,2.91
2018-12-12T16:59:16.531Z,2.89
2018-12-12T17:02:23.186Z,2.90
2018-12-12T17:05:47.624Z,2.85
2018-12-12T17:08:54.375Z,2.86
2018-12-12T17:12:01.129Z,2.87
2018-12-12T17:15:20.333Z,2.83
2018-12-12T17:18:40.282Z,2.83
2018-12-12T17:22:01.859Z,2.83
2018-12-12T17:25:09.010Z,2.81
2018-12-12T17:28:16.038Z,2.78
2018-12-12T17:31:22.821Z,2.79
2018-12-12T17:34:30.455Z,2.81
2018-12-12T17:37:37.163Z,2.87
2018-12-12T17:40:56.148Z,2.90
2018-12-12T17:44:03.339Z,2.90
2018-12-12T17:47:29.590Z,2.81
2018-12-12T17:50:48.661Z,2.77
2018-12-12T17:53:55.336Z,2.79
2018-12-12T17:57:02.005Z,2.75
2018-12-12T18:00:23.266Z,2.71
2018-12-12T18:03:48.621Z,2.71
2018-12-12T18:06:55.374Z,2.74
2018-12-12T18:10:02.044Z,2.70
2018-12-12T18:13:21.416Z,2.71
2018-12-12T18:16:28.166Z,2.66
2018-12-12T18:19:34.819Z,2.63
2018-12-12T18:22:54.002Z,2.59
2018-12-12T18:26:00.647Z,2.60
2018-12-12T18:29:07.444Z,2.57
2018-12-12T18:32:26.702Z,2.58
2018-12-12T18:35:33.471Z,2.60
2018-12-12T18:38:40.132Z,2.61
2018-12-12T18:41:47.974Z,2.58
2018-12-12T18:44:54.736Z,2.56
2018-12-12T18:48:13.818Z,2.55
2018-12-12T18:51:20.578Z,2.57
2018-12-12T18:54:27.257Z,2.55
2018-12-12T18:57:33.927Z,2.58
2018-12-12T19:00:40.716Z,2.54
2018-12-12T19:03:47.371Z,2.52
2018-12-12T19:07:06.533Z,2.57
2018-12-12T19:10:13.295Z,2.52
2018-12-12T19:13:19.950Z,2.54
2018-12-12T19:16:39.196Z,2.52
2018-12-12T19:19:46.060Z,2.52
2018-12-12T19:22:52.970Z,2.53
2018-12-12T19:26:11.893Z,2.51
2018-12-12T19:29:18.641Z,2.52
2018-12-12T19:32:25.578Z,2.55
2018-12-12T19:35:45.502Z,2.54
2018-12-12T19:38:52.265Z,2.58
2018-12-12T19:41:58.914Z,2.55
2018-12-12T19:45:18.414Z,2.59
2018-12-12T19:48:25.195Z,2.52
2018-12-12T19:51:31.970Z,2.53
2018-12-12T19:54:38.639Z,2.53
2018-12-12T19:57:45.419Z,2.55
2018-12-12T20:00:52.188Z,2.61
2018-12-12T20:03:59.387Z,2.49
2018-12-12T20:07:06.086Z,2.40
2018-12-12T20:10:25.634Z,2.49
2018-12-12T20:13:32.301Z,2.49
2018-12-12T20:16:38.963Z,2.43
2018-12-12T20:19:59.877Z,2.57
2018-12-12T20:23:07.081Z,2.46
2018-12-12T20:26:14.037Z,2.42
2018-12-12T20:29:21.176Z,2.57
2018-12-12T20:32:27.847Z,2.63
2018-12-12T20:35:48.995Z,2.52
2018-12-12T20:38:56.226Z,2.40
2018-12-12T20:42:03.198Z,2.35
2018-12-12T20:45:10.238Z,2.37
2018-12-12T20:48:17.077Z,2.33
2018-12-12T20:51:36.099Z,2.31
2018-12-12T20:54:42.797Z,2.23
2018-12-12T20:57:49.478Z,2.22
2018-12-12T21:01:08.785Z,2.24
2018-12-12T21:04:15.546Z,2.19
2018-12-12T21:07:22.204Z,2.15
2018-12-12T21:10:43.457Z,2.17
2018-12-12T21:13:50.121Z,2.11
2018-12-12T21:17:10.899Z,2.03
2018-12-12T21:20:17.646Z,2.06
2018-12-12T21:23:24.451Z,2.03
2018-12-12T21:26:44.651Z,1.99
2018-12-12T21:29:51.403Z,1.95
2018-12-12T21:33:10.777Z,1.91
2018-12-12T21:36:17.825Z,1.91
2018-12-12T21:39:24.535Z,1.91
2018-12-12T21:42:31.319Z,1.87
2018-12-12T21:45:37.982Z,1.79
2018-12-12T21:48:47.737Z,1.88
2018-12-12T21:52:03.058Z,1.81
2018-12-12T21:55:10.291Z,1.74
2018-12-12T21:58:17.053Z,1.72
2018-12-12T22:01:23.725Z,1.71
2018-12-12T22:04:42.899Z,1.70
2018-12-12T22:07:49.574Z,1.64
2018-12-12T22:11:08.382Z,1.60
2018-12-12T22:14:15.267Z,1.65
2018-12-12T22:17:22.138Z,1.62
2018-12-12T22:20:41.023Z,1.53
2018-12-12T22:23:47.877Z,1.52
2018-12-12T22:26:54.576Z,1.55
2018-12-12T22:30:13.762Z,1.51
2018-12-12T22:33:20.456Z,1.47
2018-12-12T22:36:27.358Z,1.50
2018-12-12T22:39:46.473Z,1.43
2018-12-12T22:42:53.145Z,1.41
2018-12-12T22:46:11.922Z,1.40
2018-12-12T22:49:19.111Z,1.35
2018-12-12T22:52:26.110Z,1.38
2018-12-12T22:55:32.871Z,1.34
2018-12-12T22:58:39.110Z,1.30
2018-12-12T23:01:45.895Z,1.31
2018-12-12T23:04:51.837Z,1.27
2018-12-12T23:07:58.555Z,1.27
2018-12-12T23:11:17.469Z,1.16
2018-12-12T23:14:24.142Z,1.21
2018-12-12T23:17:42.949Z,1.19
2018-12-12T23:20:49.710Z,1.17
2018-12-12T23:23:56.509Z,1.06
2018-12-12T23:27:15.605Z,1.03
2018-12-12T23:30:21.632Z,1.03
2018-12-12T23:33:28.526Z,0.98
2018-12-12T23:36:35.703Z,0.90
2018-12-12T23:39:42.484Z,0.91
2018-12-12T23:42:49.130Z,0.84
2018-12-12T23:46:08.322Z,0.82
2018-12-12T23:49:14.986Z,0.84
2018-12-12T23:52:33.816Z,0.84
2018-12-12T23:55:40.489Z,0.81
2018-12-12T23:58:47.283Z,0.80
